Platzwetter Flugplatz Wels

Flugwetter Linz LOWL

[Quelle: ADDS]
METAR
LOWL 201220Z 23003KT 200V290 9999 SCT007 SCT032 03/02 Q1045 NOSIG =
LOWL 201115Z 2012/2112 VRB02KT 9999 FEW040 TX03/2014Z TNM02/2108Z BECMG 2013/2015 09006KT BECMG 2100/2103 BKN007 TEMPO 2103/2112 3000 BR BKN004
TAF
LOWL 201115Z 2012/2112 VRB02KT 9999 FEW040 TX03/2014Z TNM02/2108Z BECMG 2013/2015 09006KT BECMG 2100/2103 BKN007 TEMPO 2103/2112 3000 BR BKN004 =

Flugwetter Salzburg LOWS

[Quelle: ADDS]
METAR
LOWS 201220Z VRB02KT 9999 FEW009 SCT013 BKN040 02/M00 Q1044 R15/29//95 NOSIG =
LOWS 201115Z 2012/2112 15003KT 9999 SCT025 BKN045 TX01/2014Z TNM06/2106Z BECMG 2012/2014 SCT040 BECMG 2018/2020 4000 BR NSC TEMPO 2022/2109 1300 BCFG NSC PROB40 TEMPO 2105/2109 0400 FZFG SCT003 BKN004 BECMG 2109/2111 8000
TAF
LOWS 201115Z 2012/2112 15003KT 9999 SCT025 BKN045 TX01/2014Z TNM06/2106Z BECMG 2012/2014 SCT040 BECMG 2018/2020 4000 BR NSC TEMPO 2022/2109 1300 BCFG NSC PROB40 TEMPO 2105/2109 0400 FZFG SCT003 BKN004 BECMG 2109/2111 8000 =

Wind - Verlauf

Windrichtung - Verlauf

Temperatur - Verlauf

Relative Luftfeuchtigkeit - Verlauf

Luftdruck - Verlauf

Cookies erleichtern die Bereitstellung unserer Dienste. Mit der Nutzung unserer Dienste erklären Sie sich damit einverstanden, dass wir Cookies verwenden.
Weitere Informationen Ok